EGHI Airport Information

Runway Information
Runway 02 Length 5653 ft width 121 ft Elevation 31 ft Threshold 240 ft Heading 19
Runway 20 Length 5653 ft Width 121 ft Elevation 44 ft Threshold 145 ft Heading 199
Airport Frequencies
Type APP Name APP Frequency 128.85 MHZ
Type ATIS Name ATIS Frequency 113.35 MHZ
Type GND Name GND Frequency 121.775 MHZ
Type OPS Name OPS Frequency 130.65 MHZ
Type TWR Name TWR Frequency 118.2 MHZ
Airport Navaids
Type NDB Name Southampton Frequency 392 KHZ
Type VOR-DME Name Southampton Frequency 113350 KHZ
Airport Weather Information & NOTAM
ADDS - METARS form results

(1525 UTC 02 December 2022)
Data provider http://aviationweather.gov/metar/data/
 
METAR text: EGHI 021520Z 02006KT 9999 FEW011 06/05 Q1024
Conditions at: EGHI (SOUTHAMPTON WX C, GB) observed 1520 UTC 02 December 2022
Temperature: 6.0°C (43°F)
Dewpoint: 5.0°C (41°F) [RH = 93%]
Pressure (altimeter): 30.24 inches Hg (1024.0 mb)
Winds: from the NNE (20 degrees) at 7 MPH (6 knots; 3.1 m/s)
Visibility: 6 or more miles (10+ km)
Ceiling: at least 12,000 feet AGL
Clouds: few clouds at 1100 feet AGL
Weather: no significant weather observed at this time

METAR text: EGHI 021450Z 03007KT 360V060 9999 FEW011 07/05 Q1024
Conditions at: EGHI (SOUTHAMPTON WX C, GB) observed 1450 UTC 02 December 2022
Temperature: 7.0°C (45°F)
Dewpoint: 5.0°C (41°F) [RH = 87%]
Pressure (altimeter): 30.24 inches Hg (1024.0 mb)
Winds: from the NNE (30 degrees) at 8 MPH (7 knots; 3.6 m/s)
Visibility: 6 or more miles (10+ km)
Ceiling: at least 12,000 feet AGL
Clouds: few clouds at 1100 feet AGL
Weather: no significant weather observed at this time

Forecast for: EGHI (SOUTHAMPTON WX C, GB)
Text: TAF EGHI 021401Z 0215/0223 01008KT 9999 FEW015
Forecast period: 1500 to 2300 UTC 02 December 2022
Forecast type: FROM: standard forecast or significant change
Winds: from the N (10 degrees) at 9 MPH (8 knots; 4.1 m/s)
Visibility: 6 or more miles (10+ km)
Ceiling: at least 12,000 feet AGL
Clouds: few clouds at 1500 feet AGL
Weather: no significant weather forecast for this period
Text: PROB30
Forecast period: 1500 to 1800 UTC 02 December 2022
Forecast type: TEMPORARY: The following changes expected for less than half the time period
Visibility: 4 miles (7 km)
Ceiling: 800 feet AGL
Clouds: broken clouds at 800 feet AGL
Weather: no significant weather forecast for this period